createdAt,value
2018-12-18T00:00:09.843Z,93
2018-12-18T00:05:37.568Z,94
2018-12-18T00:11:05.332Z,94
2018-12-18T00:16:32.139Z,94
2018-12-18T00:21:59.892Z,94
2018-12-18T00:27:27.702Z,94
2018-12-18T00:32:54.528Z,94
2018-12-18T00:38:22.395Z,94
2018-12-18T00:43:50.558Z,94
2018-12-18T00:49:17.820Z,94
2018-12-18T00:54:45.574Z,94
2018-12-18T01:00:12.345Z,94
2018-12-18T01:05:39.112Z,94
2018-12-18T01:11:05.921Z,94
2018-12-18T01:16:32.884Z,94
2018-12-18T01:21:59.571Z,94
2018-12-18T01:27:27.354Z,94
2018-12-18T01:32:55.070Z,94
2018-12-18T01:38:21.932Z,94
2018-12-18T01:43:48.766Z,94
2018-12-18T01:49:15.465Z,94
2018-12-18T01:54:43.235Z,94
2018-12-18T02:00:11.053Z,94
2018-12-18T02:05:37.853Z,94
2018-12-18T02:11:04.648Z,94
2018-12-18T02:16:32.702Z,94
2018-12-18T02:21:59.199Z,94
2018-12-18T02:27:25.989Z,94
2018-12-18T02:32:52.775Z,94
2018-12-18T02:38:20.627Z,94
2018-12-18T02:43:47.430Z,95
2018-12-18T02:49:15.172Z,95
2018-12-18T02:54:41.949Z,95
2018-12-18T03:00:08.748Z,95
2018-12-18T03:05:36.538Z,95
2018-12-18T03:11:03.353Z,95
2018-12-18T03:21:57.942Z,95
2018-12-18T03:27:24.806Z,95
2018-12-18T03:32:51.583Z,95
2018-12-18T03:38:18.399Z,95
2018-12-18T03:43:46.291Z,95
2018-12-18T03:49:14.009Z,95
2018-12-18T03:54:40.825Z,95
2018-12-18T04:00:08.587Z,95
2018-12-18T04:05:35.817Z,95
2018-12-18T04:11:02.454Z,95
2018-12-18T04:16:30.235Z,95
2018-12-18T04:21:56.819Z,95
2018-12-18T04:27:23.608Z,95
2018-12-18T04:32:51.520Z,95
2018-12-18T04:38:19.308Z,95
2018-12-18T04:43:47.081Z,95
2018-12-18T04:49:13.919Z,95
2018-12-18T04:54:41.723Z,95
2018-12-18T05:00:09.569Z,95
2018-12-18T05:05:36.500Z,95
2018-12-18T05:11:04.222Z,95
2018-12-18T05:16:31.037Z,95
2018-12-18T05:21:58.950Z,95
2018-12-18T05:27:25.746Z,95
2018-12-18T05:32:52.630Z,96
2018-12-18T05:38:19.438Z,96
2018-12-18T05:43:46.362Z,96
2018-12-18T05:49:13.166Z,96
2018-12-18T05:54:40.001Z,96
2018-12-18T06:00:07.860Z,96
2018-12-18T06:05:35.678Z,96
2018-12-18T06:11:03.536Z,96
2018-12-18T06:16:30.550Z,96
2018-12-18T06:21:57.246Z,96
2018-12-18T06:27:24.126Z,96
2018-12-18T06:32:52.069Z,96
2018-12-18T06:38:18.853Z,96
2018-12-18T06:43:46.752Z,96
2018-12-18T06:49:13.626Z,96
2018-12-18T06:54:40.772Z,96
2018-12-18T07:00:07.428Z,96
2018-12-18T07:05:34.343Z,96
2018-12-18T07:11:02.197Z,96
2018-12-18T07:16:29.130Z,96
2018-12-18T07:21:55.997Z,96
2018-12-18T07:27:23.338Z,96
2018-12-18T07:32:49.801Z,96
2018-12-18T07:38:17.679Z,96
2018-12-18T07:43:45.581Z,96
2018-12-18T07:49:13.508Z,97
2018-12-18T07:54:40.456Z,97
2018-12-18T08:00:07.272Z,97
2018-12-18T08:05:35.205Z,97
2018-12-18T08:11:03.081Z,97
2018-12-18T08:16:30.958Z,97
2018-12-18T08:21:57.879Z,97
2018-12-18T08:27:25.800Z,97
2018-12-18T08:32:53.727Z,97
2018-12-18T08:38:21.649Z,97
2018-12-18T08:43:49.526Z,97
2018-12-18T08:49:16.441Z,97
2018-12-18T08:54:44.983Z,97
2018-12-18T09:00:11.280Z,97
2018-12-18T09:05:43.052Z,97
2018-12-18T09:11:07.053Z,97
2018-12-18T09:16:34.990Z,97
2018-12-18T09:22:02.947Z,97
2018-12-18T09:27:30.817Z,97
2018-12-18T09:32:57.750Z,97
2018-12-18T09:38:25.830Z,97
2018-12-18T09:43:52.643Z,97
2018-12-18T09:49:19.519Z,97
2018-12-18T09:54:47.524Z,97
2018-12-18T10:00:14.461Z,97
2018-12-18T10:05:41.381Z,97
2018-12-18T10:11:09.270Z,97
2018-12-18T10:16:37.256Z,98
2018-12-18T10:22:05.395Z,98
2018-12-18T10:27:32.109Z,98
2018-12-18T10:33:00.024Z,98
2018-12-18T10:38:26.991Z,98
2018-12-18T10:43:53.854Z,98
2018-12-18T10:49:21.812Z,98
2018-12-18T10:54:48.738Z,98
2018-12-18T11:05:43.639Z,98
2018-12-18T11:11:11.740Z,98
2018-12-18T11:16:38.505Z,98
2018-12-18T11:22:06.413Z,98
2018-12-18T11:27:34.321Z,98
2018-12-18T13:33:06.225Z,99
2018-12-18T13:38:34.145Z,99
2018-12-18T13:44:02.176Z,99
2018-12-18T13:49:29.098Z,99
2018-12-18T13:54:56.047Z,99
2018-12-18T14:00:23.083Z,99
2018-12-18T14:05:50.001Z,99
2018-12-18T14:11:17.050Z,99
2018-12-18T14:16:44.966Z,99
2018-12-18T14:22:12.983Z,99
2018-12-18T14:27:39.881Z,99
2018-12-18T14:33:07.864Z,99
2018-12-18T14:38:34.878Z,99
2018-12-18T14:44:01.869Z,99
2018-12-18T14:49:29.820Z,99
2018-12-18T14:54:56.763Z,99
2018-12-18T15:00:23.995Z,99
2018-12-18T15:05:55.656Z,99
2018-12-18T15:11:17.637Z,99
2018-12-18T15:16:44.923Z,99
2018-12-18T15:22:12.089Z,99
2018-12-18T15:27:39.574Z,99
2018-12-18T15:33:06.552Z,99
2018-12-18T15:38:34.648Z,99
2018-12-18T15:44:01.616Z,99
2018-12-18T15:49:29.467Z,99
2018-12-18T15:54:56.459Z,99
2018-12-18T16:00:23.406Z,99
2018-12-18T16:05:51.421Z,99
2018-12-18T16:11:19.362Z,99
2018-12-18T16:16:47.421Z,99
2018-12-18T16:22:14.300Z,99
2018-12-18T16:27:42.433Z,99
2018-12-18T16:33:10.227Z,100
2018-12-18T16:38:38.192Z,99
2018-12-18T16:44:05.236Z,100
2018-12-18T16:49:33.148Z,100
2018-12-18T16:55:01.196Z,100
2018-12-18T17:00:28.089Z,100
2018-12-18T17:05:55.088Z,100
2018-12-18T17:11:22.110Z,100
2018-12-18T17:16:49.027Z,100
2018-12-18T17:22:16.387Z,100
2018-12-18T17:27:43.094Z,100
2018-12-18T17:33:10.972Z,100
2018-12-18T17:38:37.954Z,100
2018-12-18T17:44:04.883Z,100
2018-12-18T17:49:31.922Z,100
2018-12-18T17:54:59.814Z,100
2018-12-18T18:00:27.848Z,100
2018-12-18T18:05:54.754Z,100
2018-12-18T18:11:22.763Z,100
2018-12-18T18:16:50.680Z,100
2018-12-18T18:22:18.627Z,100
2018-12-18T18:27:46.587Z,100
2018-12-18T18:33:14.544Z,100
2018-12-18T18:38:42.553Z,100
2018-12-18T18:44:10.563Z,100
2018-12-18T18:49:37.465Z,100
2018-12-18T18:55:05.458Z,100
2018-12-18T19:00:32.484Z,100
2018-12-18T19:05:59.367Z,100
2018-12-18T19:11:26.411Z,100
2018-12-18T19:16:55.293Z,100
2018-12-18T19:22:21.299Z,100
2018-12-18T19:27:49.311Z,100
2018-12-18T19:33:17.249Z,100
2018-12-18T19:38:44.131Z,100
2018-12-18T19:44:11.137Z,100
2018-12-18T19:49:38.074Z,100
2018-12-18T19:55:06.345Z,100
2018-12-18T20:00:33.059Z,100
2018-12-18T20:06:00.914Z,100
2018-12-18T20:11:27.989Z,100
2018-12-18T20:16:55.463Z,99
2018-12-18T20:22:21.779Z,99
2018-12-18T20:27:48.756Z,99
2018-12-18T20:33:16.687Z,99
2018-12-18T20:38:44.660Z,99
2018-12-18T20:44:12.530Z,100
2018-12-18T20:49:40.827Z,100
2018-12-18T20:55:06.403Z,100
2018-12-18T21:00:33.248Z,100
2018-12-18T21:06:00.169Z,100
2018-12-18T21:11:27.133Z,100
2018-12-18T21:16:55.423Z,100
2018-12-18T21:22:21.828Z,100
2018-12-18T21:27:48.752Z,100
2018-12-18T21:33:15.777Z,100
2018-12-18T21:38:42.514Z,100
2018-12-18T21:44:10.390Z,100
2018-12-18T21:49:38.337Z,100
2018-12-18T21:55:05.226Z,100
2018-12-18T22:00:32.324Z,100
2018-12-18T22:05:58.865Z,99
2018-12-18T22:11:26.724Z,99
2018-12-18T22:16:56.124Z,99
2018-12-18T22:22:21.526Z,99
2018-12-18T22:27:49.444Z,99
2018-12-18T22:33:16.180Z,99
2018-12-18T22:38:43.705Z,99
2018-12-18T22:44:09.852Z,99
2018-12-18T22:49:37.680Z,99
2018-12-18T22:55:04.484Z,99
2018-12-18T23:00:32.553Z,99
2018-12-18T23:05:59.171Z,99
2018-12-18T23:11:26.039Z,99
2018-12-18T23:16:52.885Z,99
2018-12-18T23:22:20.694Z,99
2018-12-18T23:27:48.903Z,99
2018-12-18T23:33:16.421Z,99
2018-12-18T23:38:44.217Z,99
2018-12-18T23:44:12.022Z,99
2018-12-18T23:49:39.898Z,99
2018-12-18T23:55:06.635Z,99
